createdAt,value
2018-05-29T00:01:26.560Z,13.15
2018-05-29T00:03:54.334Z,12.55
2018-05-29T00:06:22.317Z,11.82
2018-05-29T00:08:50.687Z,12.07
2018-05-29T00:11:18.277Z,11.95
2018-05-29T00:13:45.854Z,12.43
2018-05-29T00:16:13.453Z,11.93
2018-05-29T00:18:41.074Z,12.65
2018-05-29T00:21:08.656Z,12.63
2018-05-29T00:23:36.274Z,12.77
2018-05-29T00:26:03.876Z,12.65
2018-05-29T00:28:31.512Z,12.23
2018-05-29T00:30:59.105Z,13.07
2018-05-29T00:33:26.698Z,13.65
2018-05-29T00:35:54.300Z,12.13
2018-05-29T00:38:22.887Z,12.98
2018-05-29T00:40:50.492Z,13.15
2018-05-29T00:43:18.082Z,14.25
2018-05-29T00:45:45.719Z,13.27
2018-05-29T00:48:13.323Z,13.40
2018-05-29T00:50:40.908Z,15.60
2018-05-29T00:53:08.581Z,14.75
2018-05-29T00:55:39.069Z,13.43
2018-05-29T00:58:06.643Z,13.35
2018-05-29T01:00:34.243Z,13.95
2018-05-29T01:03:01.864Z,13.00
2018-05-29T01:05:29.569Z,13.57
2018-05-29T01:08:01.667Z,14.38
2018-05-29T01:10:29.265Z,13.13
2018-05-29T01:12:56.853Z,13.10
2018-05-29T01:15:24.453Z,13.57
2018-05-29T01:17:52.052Z,12.77
2018-05-29T01:20:19.631Z,13.55
2018-05-29T01:22:47.258Z,12.57
2018-05-29T01:25:14.869Z,13.35
2018-05-29T01:27:42.478Z,17.20
2018-05-29T01:30:10.078Z,14.07
2018-05-29T01:32:37.653Z,14.02
2018-05-29T01:35:05.250Z,17.30
2018-05-29T01:37:32.969Z,15.07
2018-05-29T01:40:00.598Z,15.30
2018-05-29T01:42:28.206Z,17.62
2018-05-29T01:44:55.817Z,16.60
2018-05-29T01:47:23.407Z,17.95
2018-05-29T01:49:50.993Z,15.45
2018-05-29T01:52:18.599Z,16.83
2018-05-29T01:54:46.193Z,17.70
2018-05-29T01:57:13.823Z,16.02
2018-05-29T01:59:41.413Z,14.82
2018-05-29T02:02:09.014Z,15.02
2018-05-29T02:04:36.602Z,14.00
2018-05-29T02:07:06.213Z,14.60
2018-05-29T02:09:34.585Z,15.70
2018-05-29T02:12:02.954Z,15.20
2018-05-29T02:14:30.545Z,14.57
2018-05-29T02:16:58.179Z,15.73
2018-05-29T02:19:25.786Z,15.13
2018-05-29T02:21:53.399Z,14.95
2018-05-29T02:24:20.974Z,15.73
2018-05-29T02:26:48.602Z,15.87
2018-05-29T02:29:16.245Z,16.20
2018-05-29T02:31:43.838Z,17.93
2018-05-29T02:34:11.438Z,18.80
2018-05-29T02:36:39.038Z,18.73
2018-05-29T02:39:06.626Z,17.40
2018-05-29T02:41:34.236Z,19.40
2018-05-29T02:44:01.899Z,17.53
2018-05-29T02:46:29.516Z,18.13
2018-05-29T02:48:57.085Z,17.67
2018-05-29T02:51:24.703Z,17.20
2018-05-29T02:53:52.340Z,19.87
2018-05-29T02:56:19.920Z,20.00
2018-05-29T02:58:47.536Z,19.07
2018-05-29T03:01:15.123Z,20.00
2018-05-29T03:03:42.715Z,18.43
2018-05-29T03:06:10.373Z,17.97
2018-05-29T03:08:37.974Z,17.73
2018-05-29T03:11:05.563Z,18.73
2018-05-29T03:13:33.166Z,16.77
2018-05-29T03:16:01.774Z,16.13
2018-05-29T03:18:29.568Z,16.37
2018-05-29T03:20:57.998Z,15.53
2018-05-29T03:23:25.561Z,15.83
2018-05-29T03:25:53.457Z,15.67
2018-05-29T03:28:21.223Z,14.53
2018-05-29T03:30:48.826Z,15.50
2018-05-29T03:33:16.415Z,17.60
2018-05-29T03:35:43.994Z,18.57
2018-05-29T03:38:11.585Z,19.57
2018-05-29T03:40:39.178Z,20.77
2018-05-29T03:43:06.786Z,20.73
2018-05-29T03:45:34.366Z,20.70
2018-05-29T03:48:02.736Z,20.27
2018-05-29T03:50:30.307Z,19.40
2018-05-29T03:52:57.931Z,16.33
2018-05-29T03:55:25.551Z,18.23
2018-05-29T03:57:53.194Z,16.53
2018-05-29T04:00:21.590Z,17.93
2018-05-29T04:02:49.993Z,16.47
2018-05-29T04:05:17.591Z,16.20
2018-05-29T04:07:45.215Z,16.13
2018-05-29T04:10:12.799Z,15.30
2018-05-29T04:12:40.469Z,14.23
2018-05-29T04:15:08.064Z,14.40
2018-05-29T04:17:35.661Z,14.30
2018-05-29T04:20:03.236Z,13.50
2018-05-29T04:22:30.818Z,13.53
2018-05-29T04:24:58.420Z,13.57
2018-05-29T04:27:26.056Z,12.77
2018-05-29T04:29:54.037Z,12.20
2018-05-29T04:32:21.662Z,12.40
2018-05-29T04:34:49.247Z,11.88
2018-05-29T04:37:16.856Z,13.38
2018-05-29T04:39:44.458Z,13.27
2018-05-29T04:42:12.203Z,13.57
2018-05-29T04:44:39.784Z,13.55
2018-05-29T04:47:07.447Z,13.10
2018-05-29T04:49:35.057Z,13.48
2018-05-29T04:52:02.698Z,13.50
2018-05-29T04:54:30.296Z,12.30
2018-05-29T04:56:57.908Z,11.85
2018-05-29T04:59:25.515Z,11.82
2018-05-29T05:01:53.111Z,12.40
2018-05-29T05:04:20.701Z,11.68
2018-05-29T05:06:48.366Z,12.73
2018-05-29T05:09:15.958Z,13.05
2018-05-29T05:11:43.566Z,11.60
2018-05-29T05:14:11.176Z,11.70
2018-05-29T05:16:39.541Z,11.95
2018-05-29T05:19:07.882Z,12.60
2018-05-29T05:21:35.479Z,12.63
2018-05-29T05:24:03.066Z,11.57
2018-05-29T05:26:30.667Z,11.95
2018-05-29T05:28:58.270Z,12.25
2018-05-29T05:31:25.890Z,14.32
2018-05-29T05:33:53.499Z,13.48
2018-05-29T05:36:21.097Z,12.95
2018-05-29T05:38:48.711Z,12.90
2018-05-29T05:41:16.309Z,12.10
2018-05-29T05:43:43.887Z,11.63
2018-05-29T05:46:11.459Z,12.35
2018-05-29T05:48:39.232Z,12.52
2018-05-29T05:51:06.821Z,12.80
2018-05-29T05:53:34.420Z,12.98
2018-05-29T05:56:01.995Z,13.13
2018-05-29T05:58:29.600Z,12.13
2018-05-29T06:00:57.211Z,13.00
2018-05-29T06:03:24.821Z,11.85
2018-05-29T06:05:52.414Z,12.48
2018-05-29T06:08:20.014Z,11.75
2018-05-29T06:10:47.605Z,13.00
2018-05-29T06:13:15.214Z,12.57
2018-05-29T06:15:42.810Z,12.23
2018-05-29T06:18:12.431Z,12.10
2018-05-29T06:20:40.097Z,12.40
2018-05-29T06:23:07.683Z,12.20
2018-05-29T06:25:35.299Z,11.80
2018-05-29T06:28:02.901Z,12.90
2018-05-29T06:30:31.276Z,11.12
2018-05-29T06:32:59.651Z,10.80
2018-05-29T06:35:27.222Z,12.10
2018-05-29T06:37:55.514Z,11.73
2018-05-29T06:40:23.114Z,10.45
2018-05-29T06:42:50.723Z,11.43
2018-05-29T06:45:19.094Z,11.88
2018-05-29T06:47:46.843Z,12.13
2018-05-29T06:50:14.429Z,11.20
2018-05-29T06:52:42.029Z,11.43
2018-05-29T06:55:09.749Z,11.35
2018-05-29T06:57:38.218Z,11.75
2018-05-29T07:00:05.826Z,10.27
2018-05-29T07:02:33.420Z,10.57
2018-05-29T07:05:01.014Z,10.88
2018-05-29T07:07:28.624Z,10.18
2018-05-29T07:09:56.203Z,11.25
2018-05-29T07:12:23.771Z,11.10
2018-05-29T07:14:51.376Z,10.38
2018-05-29T07:17:20.954Z,10.40
2018-05-29T07:19:48.556Z,10.07
2018-05-29T07:22:16.825Z,10.60
2018-05-29T07:24:45.194Z,11.32
2018-05-29T07:27:12.837Z,10.50
2018-05-29T07:29:40.443Z,11.50
2018-05-29T07:32:08.049Z,10.35
2018-05-29T07:34:35.655Z,10.35
2018-05-29T07:37:03.282Z,11.15
2018-05-29T07:39:30.869Z,10.18
2018-05-29T07:41:58.479Z,10.30
2018-05-29T07:44:26.063Z,10.65
2018-05-29T07:46:53.640Z,9.77
2018-05-29T07:49:21.257Z,10.40
2018-05-29T07:51:48.862Z,9.75
2018-05-29T07:54:16.469Z,11.80
2018-05-29T07:56:44.056Z,10.15
2018-05-29T07:59:11.627Z,10.38
2018-05-29T08:01:39.243Z,13.35
2018-05-29T08:04:06.858Z,10.85
2018-05-29T08:06:34.473Z,12.70
2018-05-29T08:09:06.957Z,13.38
2018-05-29T08:11:34.558Z,14.00
2018-05-29T08:14:02.173Z,13.57
2018-05-29T08:16:29.791Z,12.60
2018-05-29T08:18:57.393Z,12.90
2018-05-29T08:21:24.980Z,12.25
2018-05-29T08:23:52.577Z,11.57
2018-05-29T08:26:20.198Z,11.38
2018-05-29T08:28:47.895Z,11.65
2018-05-29T08:31:15.474Z,13.20
2018-05-29T08:33:43.829Z,12.05
2018-05-29T08:36:11.426Z,11.10
2018-05-29T08:38:39.959Z,14.13
2018-05-29T08:41:07.558Z,11.38
2018-05-29T08:43:35.169Z,12.50
2018-05-29T08:46:02.863Z,10.77
2018-05-29T08:48:30.486Z,11.10
2018-05-29T08:50:58.063Z,10.98
2018-05-29T08:53:26.328Z,11.82
2018-05-29T08:55:53.927Z,12.75
2018-05-29T08:58:21.503Z,8.32
2018-05-29T09:00:49.150Z,9.52
2018-05-29T09:03:16.763Z,10.00
2018-05-29T09:05:44.349Z,10.60
2018-05-29T09:08:11.924Z,9.77
2018-05-29T09:10:39.545Z,10.00
2018-05-29T09:13:07.137Z,9.70
2018-05-29T09:15:34.750Z,9.02
2018-05-29T09:18:03.095Z,8.75
2018-05-29T09:20:30.689Z,8.50
2018-05-29T09:22:59.071Z,8.60
2018-05-29T09:25:26.632Z,8.20
2018-05-29T09:27:54.982Z,8.07
2018-05-29T09:30:23.464Z,8.35
2018-05-29T09:32:51.038Z,7.25
2018-05-29T09:35:18.640Z,8.25
2018-05-29T09:37:46.333Z,8.93
2018-05-29T09:40:13.985Z,8.07
2018-05-29T09:42:41.573Z,8.65
2018-05-29T09:45:09.159Z,8.57
2018-05-29T09:47:36.752Z,9.48
2018-05-29T09:50:04.352Z,8.65
2018-05-29T09:52:31.929Z,8.38
2018-05-29T09:54:59.534Z,8.13
2018-05-29T09:57:27.135Z,7.65
2018-05-29T09:59:54.729Z,7.62
2018-05-29T10:02:23.058Z,8.30
2018-05-29T10:04:50.632Z,7.70
2018-05-29T10:07:18.350Z,8.43
2018-05-29T10:09:45.947Z,7.65
2018-05-29T10:12:13.560Z,7.68
2018-05-29T10:14:41.915Z,7.57
2018-05-29T10:17:09.505Z,7.10
2018-05-29T10:19:37.093Z,7.68
2018-05-29T10:22:04.690Z,7.95
2018-05-29T10:24:32.399Z,8.10
2018-05-29T10:27:00.003Z,7.60
2018-05-29T10:29:27.594Z,7.18
2018-05-29T10:31:55.181Z,8.00
2018-05-29T10:34:23.537Z,7.25
2018-05-29T10:36:51.130Z,7.15
2018-05-29T10:39:18.722Z,7.00
2018-05-29T10:41:46.560Z,7.07
2018-05-29T10:44:14.185Z,7.22
2018-05-29T10:46:41.755Z,7.18
2018-05-29T10:49:09.358Z,7.70
2018-05-29T10:51:37.728Z,7.37
2018-05-29T10:54:05.366Z,7.12
2018-05-29T10:56:32.957Z,7.35
2018-05-29T10:59:01.710Z,7.65
2018-05-29T11:01:30.081Z,8.15
2018-05-29T11:03:57.653Z,7.50
2018-05-29T11:06:25.246Z,8.27
2018-05-29T11:08:52.854Z,8.55
2018-05-29T11:11:20.497Z,8.13
2018-05-29T11:13:48.081Z,8.25
2018-05-29T11:16:15.674Z,7.93
2018-05-29T11:18:43.253Z,8.20
2018-05-29T11:21:10.829Z,8.18
2018-05-29T11:23:38.431Z,8.40
2018-05-29T11:26:06.028Z,8.00
2018-05-29T11:28:33.639Z,8.48
2018-05-29T11:31:01.223Z,8.05
2018-05-29T11:33:28.820Z,8.40
2018-05-29T11:35:56.414Z,7.70
2018-05-29T11:38:23.993Z,7.85
2018-05-29T11:40:51.576Z,8.23
2018-05-29T11:43:19.959Z,7.75
2018-05-29T11:45:48.319Z,7.60
2018-05-29T11:48:15.934Z,7.95
2018-05-29T11:50:43.541Z,8.07
2018-05-29T11:53:11.137Z,7.97
2018-05-29T11:55:39.489Z,7.93
2018-05-29T11:58:07.156Z,8.75
2018-05-29T12:00:34.808Z,8.20
2018-05-29T12:03:02.378Z,8.60
2018-05-29T12:05:29.991Z,8.70
2018-05-29T12:07:57.603Z,9.10
2018-05-29T12:10:25.176Z,8.98
2018-05-29T12:12:52.775Z,9.63
2018-05-29T12:15:20.367Z,9.00
2018-05-29T12:17:47.953Z,9.23
2018-05-29T12:20:15.758Z,8.95
2018-05-29T12:22:43.953Z,8.80
2018-05-29T12:25:11.537Z,8.68
2018-05-29T12:27:39.116Z,9.35
2018-05-29T12:30:07.478Z,8.75
2018-05-29T12:32:35.078Z,9.43
2018-05-29T12:35:02.676Z,8.98
2018-05-29T12:37:30.275Z,10.05
2018-05-29T12:39:57.878Z,9.73
2018-05-29T12:42:25.466Z,9.18
2018-05-29T12:44:53.053Z,9.68
2018-05-29T12:47:20.674Z,9.52
2018-05-29T12:49:48.280Z,9.10
2018-05-29T12:52:16.018Z,9.00
2018-05-29T12:54:43.627Z,9.65
2018-05-29T12:57:11.995Z,9.23
2018-05-29T12:59:40.687Z,9.80
2018-05-29T13:02:09.119Z,9.52
2018-05-29T13:04:36.724Z,10.20
2018-05-29T13:07:04.318Z,8.80
2018-05-29T13:09:31.914Z,9.48
2018-05-29T13:11:59.532Z,9.23
2018-05-29T13:14:27.131Z,8.45
2018-05-29T13:16:54.733Z,8.82
2018-05-29T13:19:22.477Z,8.65
2018-05-29T13:21:50.055Z,8.95
2018-05-29T13:24:17.661Z,9.27
2018-05-29T13:26:45.250Z,9.68
2018-05-29T13:29:12.856Z,10.07
2018-05-29T13:31:40.454Z,8.80
2018-05-29T13:34:08.231Z,9.50
2018-05-29T13:36:35.831Z,9.50
2018-05-29T13:39:03.426Z,9.15
2018-05-29T13:41:31.013Z,9.35
2018-05-29T13:43:58.586Z,9.45
2018-05-29T13:46:26.162Z,9.23
2018-05-29T13:48:53.931Z,9.68
2018-05-29T13:51:21.535Z,9.88
2018-05-29T13:53:49.121Z,9.70
2018-05-29T13:56:16.722Z,9.88
2018-05-29T13:58:44.320Z,9.07
2018-05-29T14:01:11.921Z,9.77
2018-05-29T14:03:39.522Z,10.32
2018-05-29T14:06:07.885Z,9.93
2018-05-29T14:08:35.483Z,10.80
2018-05-29T14:11:03.078Z,10.02
2018-05-29T14:13:30.674Z,9.25
2018-05-29T14:15:58.251Z,9.18
2018-05-29T14:18:26.091Z,9.82
2018-05-29T14:20:53.708Z,10.60
2018-05-29T14:23:21.302Z,10.20
2018-05-29T14:25:48.898Z,10.10
2018-05-29T14:28:16.497Z,9.43
2018-05-29T14:30:44.118Z,9.95
2018-05-29T14:33:11.687Z,8.75
2018-05-29T14:35:39.294Z,10.13
2018-05-29T14:38:06.890Z,9.80
2018-05-29T14:40:34.481Z,9.80
2018-05-29T14:43:02.844Z,10.10
2018-05-29T14:45:31.216Z,10.82
2018-05-29T14:47:58.976Z,9.65
2018-05-29T14:50:26.586Z,10.95
2018-05-29T14:52:54.232Z,9.75
2018-05-29T14:55:21.831Z,9.52
2018-05-29T14:57:49.428Z,9.40
2018-05-29T15:00:17.034Z,11.15
2018-05-29T15:02:44.635Z,9.70
2018-05-29T15:05:12.220Z,9.65
2018-05-29T15:07:40.591Z,10.57
2018-05-29T15:10:08.171Z,10.85
2018-05-29T15:12:35.776Z,9.90
2018-05-29T15:15:03.417Z,10.30
2018-05-29T15:17:31.250Z,10.05
2018-05-29T15:19:59.804Z,10.05
2018-05-29T15:22:27.401Z,10.20
2018-05-29T15:24:55.864Z,10.45
2018-05-29T15:27:23.523Z,10.60
2018-05-29T15:29:51.118Z,9.40
2018-05-29T15:32:18.719Z,9.90
2018-05-29T15:34:46.312Z,10.18
2018-05-29T15:37:13.911Z,10.35
2018-05-29T15:39:41.514Z,10.55
2018-05-29T15:42:09.145Z,9.90
2018-05-29T15:44:36.748Z,9.70
2018-05-29T15:47:04.355Z,9.77
2018-05-29T15:49:31.963Z,10.10
2018-05-29T15:51:59.562Z,9.80
2018-05-29T15:54:27.211Z,9.13
2018-05-29T15:56:54.811Z,9.68
2018-05-29T15:59:22.430Z,9.50
2018-05-29T16:01:50.037Z,9.15
2018-05-29T16:04:17.638Z,9.10
2018-05-29T16:06:45.228Z,9.27
2018-05-29T16:09:12.798Z,9.93
2018-05-29T16:11:41.136Z,9.00
2018-05-29T16:14:08.777Z,9.55
2018-05-29T16:16:37.007Z,10.05
2018-05-29T16:19:04.607Z,9.90
2018-05-29T16:21:32.197Z,9.45
2018-05-29T16:23:59.794Z,8.93
2018-05-29T16:26:27.386Z,8.90
2018-05-29T16:28:54.977Z,9.63
2018-05-29T16:31:22.562Z,9.63
2018-05-29T16:33:50.168Z,10.40
2018-05-29T16:36:22.242Z,9.65
2018-05-29T16:38:49.937Z,9.82
2018-05-29T16:41:17.533Z,8.63
2018-05-29T16:43:45.531Z,6.57
2018-05-29T16:46:13.122Z,6.32
2018-05-29T16:48:40.723Z,5.57
2018-05-29T16:51:08.319Z,5.30
2018-05-29T16:53:35.906Z,5.37
2018-05-29T16:56:03.507Z,4.68
2018-05-29T16:58:31.102Z,5.35
2018-05-29T17:00:58.685Z,6.20
2018-05-29T17:03:26.277Z,8.80
2018-05-29T17:05:53.874Z,8.70
2018-05-29T17:08:22.248Z,8.82
2018-05-29T17:10:50.615Z,9.45
2018-05-29T17:13:18.981Z,8.63
2018-05-29T17:15:47.088Z,10.30
2018-05-29T17:18:15.432Z,11.47
2018-05-29T17:20:43.038Z,11.97
2018-05-29T17:23:10.627Z,13.73
2018-05-29T17:25:38.207Z,13.07
2018-05-29T17:28:05.851Z,14.63
2018-05-29T17:30:33.458Z,13.80
2018-05-29T17:33:01.447Z,12.97
2018-05-29T17:35:29.083Z,11.13
2018-05-29T17:37:56.686Z,12.90
2018-05-29T17:40:24.285Z,12.57
2018-05-29T17:42:51.863Z,9.67
2018-05-29T17:45:19.580Z,8.80
2018-05-29T17:47:47.191Z,7.43
2018-05-29T17:50:14.808Z,7.83
2018-05-29T17:52:42.415Z,7.80
2018-05-29T17:55:10.006Z,7.50
2018-05-29T17:57:37.614Z,7.10
2018-05-29T18:00:05.230Z,7.13
2018-05-29T18:02:32.830Z,6.90
2018-05-29T18:05:00.450Z,7.43
2018-05-29T18:07:28.042Z,7.73
2018-05-29T18:09:55.619Z,7.13
2018-05-29T18:12:23.205Z,7.50
2018-05-29T18:14:50.790Z,7.47
2018-05-29T18:17:18.439Z,7.40
2018-05-29T18:19:46.816Z,7.93
2018-05-29T18:22:14.412Z,7.37
2018-05-29T18:24:42.026Z,7.27
2018-05-29T18:27:09.629Z,6.33
2018-05-29T18:29:37.235Z,7.57
2018-05-29T18:32:04.822Z,6.83
2018-05-29T18:34:32.450Z,7.57
2018-05-29T18:37:00.047Z,7.87
2018-05-29T18:39:28.068Z,8.30
2018-05-29T18:41:55.670Z,7.20
2018-05-29T18:44:23.280Z,7.23
2018-05-29T18:46:50.892Z,7.20
2018-05-29T18:49:18.500Z,7.80
2018-05-29T18:51:46.096Z,7.03
2018-05-29T18:54:13.693Z,7.70
2018-05-29T18:56:41.314Z,7.37
2018-05-29T18:59:08.910Z,7.80
2018-05-29T19:01:36.531Z,8.37
2018-05-29T19:04:04.122Z,7.80
2018-05-29T19:06:31.710Z,7.77
2018-05-29T19:09:00.109Z,7.50
2018-05-29T19:11:27.708Z,7.40
2018-05-29T19:13:55.302Z,7.17
2018-05-29T19:16:22.899Z,7.47
2018-05-29T19:18:50.490Z,7.10
2018-05-29T19:21:18.098Z,7.00
2018-05-29T19:23:45.692Z,6.73
2018-05-29T19:26:13.276Z,7.20
2018-05-29T19:28:40.856Z,7.13
2018-05-29T19:31:08.472Z,6.97
2018-05-29T19:33:36.061Z,7.43
2018-05-29T19:36:03.657Z,7.40
2018-05-29T19:38:31.227Z,6.80
2018-05-29T19:40:58.834Z,8.13
2018-05-29T19:43:26.432Z,8.53
2018-05-29T19:45:54.012Z,8.30
2018-05-29T19:48:22.368Z,7.97
2018-05-29T19:50:49.965Z,8.87
2018-05-29T19:53:17.549Z,8.00
2018-05-29T19:55:45.150Z,8.03
2018-05-29T19:58:12.720Z,8.63
2018-05-29T20:00:40.328Z,9.03
2018-05-29T20:03:07.907Z,10.13
2018-05-29T20:05:35.494Z,9.30
2018-05-29T20:08:03.074Z,9.40
2018-05-29T20:10:30.716Z,8.60
2018-05-29T20:12:58.301Z,8.30
2018-05-29T20:15:25.909Z,8.07
2018-05-29T20:17:53.511Z,8.07
2018-05-29T20:20:21.114Z,8.17
2018-05-29T20:22:48.714Z,7.70
2018-05-29T20:25:16.307Z,7.23
2018-05-29T20:27:43.923Z,7.50
2018-05-29T20:30:11.518Z,7.40
2018-05-29T20:32:39.140Z,7.20
2018-05-29T20:35:06.775Z,8.07
2018-05-29T20:37:34.939Z,7.50
2018-05-29T20:40:03.275Z,7.27
2018-05-29T20:42:30.862Z,6.80
2018-05-29T20:44:58.435Z,7.20
2018-05-29T20:47:26.016Z,7.40
2018-05-29T20:49:53.592Z,7.30
2018-05-29T20:52:21.182Z,8.27
2018-05-29T20:54:48.802Z,7.43
2018-05-29T20:57:16.371Z,7.60
2018-05-29T20:59:43.948Z,8.27
2018-05-29T21:02:11.545Z,9.10
2018-05-29T21:04:39.136Z,9.40
2018-05-29T21:07:07.474Z,9.23
2018-05-29T21:09:35.046Z,9.60
2018-05-29T21:12:02.650Z,10.07
2018-05-29T21:14:30.257Z,10.37
2018-05-29T21:16:57.841Z,10.87
2018-05-29T21:19:25.415Z,10.87
2018-05-29T21:21:53.780Z,9.93
2018-05-29T21:24:21.415Z,10.30
2018-05-29T21:26:49.044Z,12.57
2018-05-29T21:29:16.628Z,11.00
2018-05-29T21:31:44.215Z,12.47
2018-05-29T21:34:11.814Z,11.30
2018-05-29T21:36:39.419Z,10.67
2018-05-29T21:39:07.026Z,10.20
2018-05-29T21:41:34.605Z,9.73
2018-05-29T21:44:02.212Z,11.20
2018-05-29T21:46:29.805Z,11.67
2018-05-29T21:48:58.278Z,10.17
2018-05-29T21:51:25.893Z,10.10
2018-05-29T21:53:53.486Z,10.23
2018-05-29T21:56:21.095Z,10.20
2018-05-29T21:58:48.698Z,11.63
2018-05-29T22:01:16.295Z,9.83
2018-05-29T22:03:43.886Z,9.70
2018-05-29T22:06:11.463Z,10.07
2018-05-29T22:08:39.117Z,9.40
2018-05-29T22:11:06.707Z,8.97
2018-05-29T22:13:34.309Z,9.43
2018-05-29T22:16:01.931Z,8.87
2018-05-29T22:18:29.610Z,10.20
2018-05-29T22:20:57.232Z,9.80
2018-05-29T22:23:24.833Z,9.00
2018-05-29T22:25:52.418Z,9.33
2018-05-29T22:28:20.020Z,8.67
2018-05-29T22:30:47.637Z,8.73
2018-05-29T22:33:15.243Z,9.77
2018-05-29T22:35:42.833Z,11.13
2018-05-29T22:38:10.444Z,11.07
2018-05-29T22:40:38.016Z,9.60
2018-05-29T22:43:05.626Z,10.60
2018-05-29T22:45:33.253Z,10.13
2018-05-29T22:48:00.878Z,11.97
2018-05-29T22:50:28.846Z,12.57
2018-05-29T22:52:56.511Z,11.10
2018-05-29T22:55:24.850Z,13.43
2018-05-29T22:57:52.442Z,13.90
2018-05-29T23:00:20.019Z,13.67
2018-05-29T23:02:48.376Z,14.57
2018-05-29T23:05:16.022Z,13.17
2018-05-29T23:07:43.623Z,12.47
2018-05-29T23:10:11.797Z,12.70
2018-05-29T23:12:40.347Z,12.03
2018-05-29T23:15:07.953Z,13.97
2018-05-29T23:17:36.343Z,13.53
2018-05-29T23:20:03.954Z,13.40
2018-05-29T23:22:32.164Z,12.13
2018-05-29T23:25:00.531Z,12.43
2018-05-29T23:27:28.921Z,12.47
2018-05-29T23:29:57.372Z,12.83
2018-05-29T23:32:25.016Z,13.50
2018-05-29T23:34:52.637Z,11.70
2018-05-29T23:37:20.236Z,12.93
2018-05-29T23:39:48.253Z,10.77
2018-05-29T23:42:15.866Z,12.07
2018-05-29T23:44:43.662Z,11.40
2018-05-29T23:47:11.237Z,12.70
2018-05-29T23:49:38.837Z,14.37
2018-05-29T23:52:06.435Z,14.30
2018-05-29T23:54:34.037Z,12.47
2018-05-29T23:57:02.390Z,11.90
2018-05-29T23:59:29.980Z,13.43
